sensor_id;sensor_type;location;lat;lon;timestamp;temperature;humidity
7232;DHT22;3657;49.630;11.018;2023-02-13T00:00:50;4.10;99.90
7232;DHT22;3657;49.630;11.018;2023-02-13T00:03:17;4.10;99.90
7232;DHT22;3657;49.630;11.018;2023-02-13T00:05:45;4.10;99.90
7232;DHT22;3657;49.630;11.018;2023-02-13T00:08:11;4.10;99.90
7232;DHT22;3657;49.630;11.018;2023-02-13T00:10:38;4.00;99.90
7232;DHT22;3657;49.630;11.018;2023-02-13T00:13:05;4.00;99.90
7232;DHT22;3657;49.630;11.018;2023-02-13T00:15:31;4.00;99.90
7232;DHT22;3657;49.630;11.018;2023-02-13T00:17:58;4.00;99.90
7232;DHT22;3657;49.630;11.018;2023-02-13T00:20:25;4.00;99.90
7232;DHT22;3657;49.630;11.018;2023-02-13T00:22:53;3.90;99.90
7232;DHT22;3657;49.630;11.018;2023-02-13T00:25:20;3.90;99.90
7232;DHT22;3657;49.630;11.018;2023-02-13T00:27:46;3.90;99.90
7232;DHT22;3657;49.630;11.018;2023-02-13T00:30:14;3.90;99.90
7232;DHT22;3657;49.630;11.018;2023-02-13T00:32:41;3.80;99.90
7232;DHT22;3657;49.630;11.018;2023-02-13T00:35:07;3.80;99.90
7232;DHT22;3657;49.630;11.018;2023-02-13T00:37:34;3.80;99.90
7232;DHT22;3657;49.630;11.018;2023-02-13T00:40:03;3.80;99.90
7232;DHT22;3657;49.630;11.018;2023-02-13T00:42:30;3.80;99.90
7232;DHT22;3657;49.630;11.018;2023-02-13T00:44:56;3.70;99.90
7232;DHT22;3657;49.630;11.018;2023-02-13T00:47:23;3.70;99.90
7232;DHT22;3657;49.630;11.018;2023-02-13T00:49:49;3.70;99.90
7232;DHT22;3657;49.630;11.018;2023-02-13T00:52:16;3.60;99.90
7232;DHT22;3657;49.630;11.018;2023-02-13T00:54:43;3.60;99.90
7232;DHT22;3657;49.630;11.018;2023-02-13T00:57:12;3.60;99.90
7232;DHT22;3657;49.630;11.018;2023-02-13T00:59:39;3.60;99.90
7232;DHT22;3657;49.630;11.018;2023-02-13T01:02:05;3.60;99.90
7232;DHT22;3657;49.630;11.018;2023-02-13T01:04:32;3.50;99.90
7232;DHT22;3657;49.630;11.018;2023-02-13T01:06:59;3.50;99.90
7232;DHT22;3657;49.630;11.018;2023-02-13T01:09:25;3.50;99.90
7232;DHT22;3657;49.630;11.018;2023-02-13T01:11:52;3.50;99.90
7232;DHT22;3657;49.630;11.018;2023-02-13T01:14:20;3.40;99.90
7232;DHT22;3657;49.630;11.018;2023-02-13T01:16:46;3.40;99.90
7232;DHT22;3657;49.630;11.018;2023-02-13T01:19:13;3.40;99.90
7232;DHT22;3657;49.630;11.018;2023-02-13T01:21:41;3.40;99.90
7232;DHT22;3657;49.630;11.018;2023-02-13T01:24:08;3.40;99.90
7232;DHT22;3657;49.630;11.018;2023-02-13T01:26:35;3.30;99.90
7232;DHT22;3657;49.630;11.018;2023-02-13T01:29:02;3.30;99.90
7232;DHT22;3657;49.630;11.018;2023-02-13T01:31:30;3.30;99.90
7232;DHT22;3657;49.630;11.018;2023-02-13T01:33:57;3.30;99.90
7232;DHT22;3657;49.630;11.018;2023-02-13T01:36:25;3.30;99.90
7232;DHT22;3657;49.630;11.018;2023-02-13T01:38:53;3.30;99.90
7232;DHT22;3657;49.630;11.018;2023-02-13T01:41:19;3.20;99.90
7232;DHT22;3657;49.630;11.018;2023-02-13T01:43:49;3.20;99.90
7232;DHT22;3657;49.630;11.018;2023-02-13T01:46:20;3.20;99.90
7232;DHT22;3657;49.630;11.018;2023-02-13T01:48:50;3.20;99.90
7232;DHT22;3657;49.630;11.018;2023-02-13T01:51:20;3.10;99.90
7232;DHT22;3657;49.630;11.018;2023-02-13T01:53:50;3.10;99.90
7232;DHT22;3657;49.630;11.018;2023-02-13T01:56:21;3.10;99.90
7232;DHT22;3657;49.630;11.018;2023-02-13T01:58:52;3.10;99.90
7232;DHT22;3657;49.630;11.018;2023-02-13T02:01:21;3.00;99.90
7232;DHT22;3657;49.630;11.018;2023-02-13T02:03:54;3.00;99.90
7232;DHT22;3657;49.630;11.018;2023-02-13T02:06:25;3.00;99.90
7232;DHT22;3657;49.630;11.018;2023-02-13T02:08:54;2.90;99.90
7232;DHT22;3657;49.630;11.018;2023-02-13T02:11:27;2.90;99.90
7232;DHT22;3657;49.630;11.018;2023-02-13T02:13:57;2.80;99.90
7232;DHT22;3657;49.630;11.018;2023-02-13T02:16:24;2.80;99.90
7232;DHT22;3657;49.630;11.018;2023-02-13T02:18:52;2.80;99.90
7232;DHT22;3657;49.630;11.018;2023-02-13T02:27:39;2.90;99.90
7232;DHT22;3657;49.630;11.018;2023-02-13T02:30:46;2.80;99.90
7232;DHT22;3657;49.630;11.018;2023-02-13T02:33:22;2.80;99.90
7232;DHT22;3657;49.630;11.018;2023-02-13T02:36:04;2.80;99.90
7232;DHT22;3657;49.630;11.018;2023-02-13T02:38:54;2.80;99.90
7232;DHT22;3657;49.630;11.018;2023-02-13T02:41:31;2.80;99.90
7232;DHT22;3657;49.630;11.018;2023-02-13T02:44:17;2.70;99.90
7232;DHT22;3657;49.630;11.018;2023-02-13T02:47:00;2.80;99.90
7232;DHT22;3657;49.630;11.018;2023-02-13T02:49:58;2.70;99.90
7232;DHT22;3657;49.630;11.018;2023-02-13T02:52:40;2.70;99.90
7232;DHT22;3657;49.630;11.018;2023-02-13T02:55:16;2.70;99.90
7232;DHT22;3657;49.630;11.018;2023-02-13T02:57:47;2.70;99.90
7232;DHT22;3657;49.630;11.018;2023-02-13T03:00:36;2.70;99.90
7232;DHT22;3657;49.630;11.018;2023-02-13T03:03:22;2.60;99.90
7232;DHT22;3657;49.630;11.018;2023-02-13T03:06:13;2.60;99.90
7232;DHT22;3657;49.630;11.018;2023-02-13T03:08:43;2.60;99.90
7232;DHT22;3657;49.630;11.018;2023-02-13T03:11:28;2.60;99.90
7232;DHT22;3657;49.630;11.018;2023-02-13T03:14:17;2.60;99.90
7232;DHT22;3657;49.630;11.018;2023-02-13T03:16:46;2.60;99.90
7232;DHT22;3657;49.630;11.018;2023-02-13T03:19:45;2.60;99.90
7232;DHT22;3657;49.630;11.018;2023-02-13T03:22:40;2.60;99.90
7232;DHT22;3657;49.630;11.018;2023-02-13T03:25:17;2.50;99.90
7232;DHT22;3657;49.630;11.018;2023-02-13T03:27:57;2.50;99.90
7232;DHT22;3657;49.630;11.018;2023-02-13T03:30:53;2.40;99.90
7232;DHT22;3657;49.630;11.018;2023-02-13T03:33:34;2.40;99.90
7232;DHT22;3657;49.630;11.018;2023-02-13T03:36:14;2.40;99.90
7232;DHT22;3657;49.630;11.018;2023-02-13T03:39:06;2.30;99.90
7232;DHT22;3657;49.630;11.018;2023-02-13T03:41:37;2.40;99.90
7232;DHT22;3657;49.630;11.018;2023-02-13T03:44:10;2.40;99.90
7232;DHT22;3657;49.630;11.018;2023-02-13T03:46:38;2.40;99.90
7232;DHT22;3657;49.630;11.018;2023-02-13T03:49:10;2.30;99.90
7232;DHT22;3657;49.630;11.018;2023-02-13T03:51:59;2.30;99.90
7232;DHT22;3657;49.630;11.018;2023-02-13T03:54:33;2.40;99.90
7232;DHT22;3657;49.630;11.018;2023-02-13T03:57:20;2.40;99.90
7232;DHT22;3657;49.630;11.018;2023-02-13T04:00:10;2.40;99.90
7232;DHT22;3657;49.630;11.018;2023-02-13T04:02:40;2.40;99.90
7232;DHT22;3657;49.630;11.018;2023-02-13T04:05:13;2.40;99.90
7232;DHT22;3657;49.630;11.018;2023-02-13T04:07:41;2.40;99.90
7232;DHT22;3657;49.630;11.018;2023-02-13T04:10:11;2.30;99.90
7232;DHT22;3657;49.630;11.018;2023-02-13T04:12:45;2.30;99.90
7232;DHT22;3657;49.630;11.018;2023-02-13T04:15:15;2.30;99.90
7232;DHT22;3657;49.630;11.018;2023-02-13T04:17:45;2.30;99.90
7232;DHT22;3657;49.630;11.018;2023-02-13T04:20:13;2.30;99.90
7232;DHT22;3657;49.630;11.018;2023-02-13T04:22:43;2.30;99.90
7232;DHT22;3657;49.630;11.018;2023-02-13T04:25:13;2.30;99.90
7232;DHT22;3657;49.630;11.018;2023-02-13T04:27:40;2.30;99.90
7232;DHT22;3657;49.630;11.018;2023-02-13T04:30:08;2.30;99.90
7232;DHT22;3657;49.630;11.018;2023-02-13T04:32:35;2.20;99.90
7232;DHT22;3657;49.630;11.018;2023-02-13T04:35:02;2.20;99.90
7232;DHT22;3657;49.630;11.018;2023-02-13T04:37:29;2.20;99.90
7232;DHT22;3657;49.630;11.018;2023-02-13T04:39:55;2.20;99.90
7232;DHT22;3657;49.630;11.018;2023-02-13T04:42:23;2.10;99.90
7232;DHT22;3657;49.630;11.018;2023-02-13T04:44:50;2.10;99.90
7232;DHT22;3657;49.630;11.018;2023-02-13T04:47:17;2.10;99.90
7232;DHT22;3657;49.630;11.018;2023-02-13T04:49:43;2.10;99.90
7232;DHT22;3657;49.630;11.018;2023-02-13T04:52:10;2.10;99.90
7232;DHT22;3657;49.630;11.018;2023-02-13T04:54:36;2.10;99.90
7232;DHT22;3657;49.630;11.018;2023-02-13T04:57:03;2.00;99.90
7232;DHT22;3657;49.630;11.018;2023-02-13T04:59:31;2.00;99.90
7232;DHT22;3657;49.630;11.018;2023-02-13T05:01:58;2.00;99.90
7232;DHT22;3657;49.630;11.018;2023-02-13T05:04:24;2.00;99.90
7232;DHT22;3657;49.630;11.018;2023-02-13T05:06:51;2.10;99.90
7232;DHT22;3657;49.630;11.018;2023-02-13T05:09:18;2.10;99.90
7232;DHT22;3657;49.630;11.018;2023-02-13T05:11:44;2.10;99.90
7232;DHT22;3657;49.630;11.018;2023-02-13T05:14:11;2.10;99.90
7232;DHT22;3657;49.630;11.018;2023-02-13T05:16:39;2.10;99.90
7232;DHT22;3657;49.630;11.018;2023-02-13T05:19:06;2.00;99.90
7232;DHT22;3657;49.630;11.018;2023-02-13T05:21:32;2.00;99.90
7232;DHT22;3657;49.630;11.018;2023-02-13T05:24:17;2.00;99.90
7232;DHT22;3657;49.630;11.018;2023-02-13T05:26:43;2.00;99.90
7232;DHT22;3657;49.630;11.018;2023-02-13T05:29:10;2.00;99.90
7232;DHT22;3657;49.630;11.018;2023-02-13T05:31:49;2.00;99.90
7232;DHT22;3657;49.630;11.018;2023-02-13T05:34:16;2.00;99.90
7232;DHT22;3657;49.630;11.018;2023-02-13T05:36:43;2.00;99.90
7232;DHT22;3657;49.630;11.018;2023-02-13T05:39:10;2.00;99.90
7232;DHT22;3657;49.630;11.018;2023-02-13T05:41:36;2.00;99.90
7232;DHT22;3657;49.630;11.018;2023-02-13T05:44:03;1.90;99.90
7232;DHT22;3657;49.630;11.018;2023-02-13T05:46:30;2.00;99.90
7232;DHT22;3657;49.630;11.018;2023-02-13T05:48:58;1.90;99.90
7232;DHT22;3657;49.630;11.018;2023-02-13T05:51:25;1.90;99.90
7232;DHT22;3657;49.630;11.018;2023-02-13T05:53:51;1.90;99.90
7232;DHT22;3657;49.630;11.018;2023-02-13T05:56:18;1.90;99.90
7232;DHT22;3657;49.630;11.018;2023-02-13T05:58:45;1.90;99.90
7232;DHT22;3657;49.630;11.018;2023-02-13T06:01:12;1.90;99.90
7232;DHT22;3657;49.630;11.018;2023-02-13T06:03:38;1.90;99.90
7232;DHT22;3657;49.630;11.018;2023-02-13T06:06:07;1.90;99.90
7232;DHT22;3657;49.630;11.018;2023-02-13T06:08:33;1.90;99.90
7232;DHT22;3657;49.630;11.018;2023-02-13T06:11:00;1.90;99.90
7232;DHT22;3657;49.630;11.018;2023-02-13T06:13:27;1.90;99.90
7232;DHT22;3657;49.630;11.018;2023-02-13T06:15:53;1.80;99.90
7232;DHT22;3657;49.630;11.018;2023-02-13T06:18:20;1.80;99.90
7232;DHT22;3657;49.630;11.018;2023-02-13T06:20:46;1.80;99.90
7232;DHT22;3657;49.630;11.018;2023-02-13T06:23:15;1.80;99.90
7232;DHT22;3657;49.630;11.018;2023-02-13T06:25:41;1.80;99.90
7232;DHT22;3657;49.630;11.018;2023-02-13T06:28:08;1.80;99.90
7232;DHT22;3657;49.630;11.018;2023-02-13T06:30:35;1.80;99.90
7232;DHT22;3657;49.630;11.018;2023-02-13T06:33:01;1.80;99.90
7232;DHT22;3657;49.630;11.018;2023-02-13T06:35:28;1.80;99.90
7232;DHT22;3657;49.630;11.018;2023-02-13T06:37:55;1.80;99.90
7232;DHT22;3657;49.630;11.018;2023-02-13T06:40:23;1.80;99.90
7232;DHT22;3657;49.630;11.018;2023-02-13T06:42:50;1.80;99.90
7232;DHT22;3657;49.630;11.018;2023-02-13T06:45:16;1.80;99.90
7232;DHT22;3657;49.630;11.018;2023-02-13T06:47:44;1.80;99.90
7232;DHT22;3657;49.630;11.018;2023-02-13T06:50:12;1.60;99.90
7232;DHT22;3657;49.630;11.018;2023-02-13T06:52:40;1.60;99.90
7232;DHT22;3657;49.630;11.018;2023-02-13T06:55:10;1.60;99.90
7232;DHT22;3657;49.630;11.018;2023-02-13T06:57:38;1.70;99.90
7232;DHT22;3657;49.630;11.018;2023-02-13T07:00:06;1.70;99.90
7232;DHT22;3657;49.630;11.018;2023-02-13T07:02:33;1.70;99.90
7232;DHT22;3657;49.630;11.018;2023-02-13T07:04:59;1.70;99.90
7232;DHT22;3657;49.630;11.018;2023-02-13T07:07:31;1.70;99.90
7232;DHT22;3657;49.630;11.018;2023-02-13T07:09:58;1.70;99.90
7232;DHT22;3657;49.630;11.018;2023-02-13T07:12:25;1.70;99.90
7232;DHT22;3657;49.630;11.018;2023-02-13T07:14:53;1.70;99.90
7232;DHT22;3657;49.630;11.018;2023-02-13T07:17:20;1.70;99.90
7232;DHT22;3657;49.630;11.018;2023-02-13T07:19:46;1.70;99.90
7232;DHT22;3657;49.630;11.018;2023-02-13T07:22:13;1.70;99.90
7232;DHT22;3657;49.630;11.018;2023-02-13T07:24:40;1.70;99.90
7232;DHT22;3657;49.630;11.018;2023-02-13T07:27:06;1.70;99.90
7232;DHT22;3657;49.630;11.018;2023-02-13T07:29:33;1.70;99.90
7232;DHT22;3657;49.630;11.018;2023-02-13T07:32:01;1.70;99.90
7232;DHT22;3657;49.630;11.018;2023-02-13T07:34:28;1.70;99.90
7232;DHT22;3657;49.630;11.018;2023-02-13T07:36:54;1.60;99.90
7232;DHT22;3657;49.630;11.018;2023-02-13T07:39:21;1.60;99.90
7232;DHT22;3657;49.630;11.018;2023-02-13T07:41:48;1.70;99.90
7232;DHT22;3657;49.630;11.018;2023-02-13T07:44:14;1.70;99.90
7232;DHT22;3657;49.630;11.018;2023-02-13T07:46:41;1.70;99.90
7232;DHT22;3657;49.630;11.018;2023-02-13T07:49:09;1.70;99.90
7232;DHT22;3657;49.630;11.018;2023-02-13T07:51:36;1.70;99.90
7232;DHT22;3657;49.630;11.018;2023-02-13T07:54:02;1.60;99.90
7232;DHT22;3657;49.630;11.018;2023-02-13T07:56:29;1.60;99.90
7232;DHT22;3657;49.630;11.018;2023-02-13T07:58:56;1.70;99.90
7232;DHT22;3657;49.630;11.018;2023-02-13T08:01:22;1.60;99.90
7232;DHT22;3657;49.630;11.018;2023-02-13T08:03:50;1.60;99.90
7232;DHT22;3657;49.630;11.018;2023-02-13T08:06:18;1.60;99.90
7232;DHT22;3657;49.630;11.018;2023-02-13T08:08:46;1.70;99.90
7232;DHT22;3657;49.630;11.018;2023-02-13T08:11:22;1.70;99.90
7232;DHT22;3657;49.630;11.018;2023-02-13T08:14:07;1.70;99.90
7232;DHT22;3657;49.630;11.018;2023-02-13T08:16:34;1.70;99.90
7232;DHT22;3657;49.630;11.018;2023-02-13T08:19:00;1.70;99.90
7232;DHT22;3657;49.630;11.018;2023-02-13T08:21:29;1.80;99.90
7232;DHT22;3657;49.630;11.018;2023-02-13T08:23:56;1.80;99.90
7232;DHT22;3657;49.630;11.018;2023-02-13T08:26:23;1.80;99.90
7232;DHT22;3657;49.630;11.018;2023-02-13T08:28:49;1.70;99.90
7232;DHT22;3657;49.630;11.018;2023-02-13T08:31:16;1.70;99.90
7232;DHT22;3657;49.630;11.018;2023-02-13T08:33:43;1.80;99.90
7232;DHT22;3657;49.630;11.018;2023-02-13T08:36:09;1.80;99.90
7232;DHT22;3657;49.630;11.018;2023-02-13T08:38:37;1.80;99.90
7232;DHT22;3657;49.630;11.018;2023-02-13T08:41:04;1.80;99.90
7232;DHT22;3657;49.630;11.018;2023-02-13T08:43:31;1.80;99.90
7232;DHT22;3657;49.630;11.018;2023-02-13T08:45:58;1.80;99.90
7232;DHT22;3657;49.630;11.018;2023-02-13T08:48:25;1.80;99.90
7232;DHT22;3657;49.630;11.018;2023-02-13T08:50:51;1.80;99.90
7232;DHT22;3657;49.630;11.018;2023-02-13T08:53:18;1.80;99.90
7232;DHT22;3657;49.630;11.018;2023-02-13T08:55:52;1.80;99.90
7232;DHT22;3657;49.630;11.018;2023-02-13T08:58:18;1.80;99.90
7232;DHT22;3657;49.630;11.018;2023-02-13T09:00:45;1.80;99.90
7232;DHT22;3657;49.630;11.018;2023-02-13T09:03:12;1.80;99.90
7232;DHT22;3657;49.630;11.018;2023-02-13T09:05:39;1.80;99.90
7232;DHT22;3657;49.630;11.018;2023-02-13T09:08:05;1.80;99.90
7232;DHT22;3657;49.630;11.018;2023-02-13T09:10:33;1.80;99.90
7232;DHT22;3657;49.630;11.018;2023-02-13T09:13:02;1.90;99.90
7232;DHT22;3657;49.630;11.018;2023-02-13T09:15:29;1.90;99.90
7232;DHT22;3657;49.630;11.018;2023-02-13T09:17:56;1.90;99.90
7232;DHT22;3657;49.630;11.018;2023-02-13T09:20:23;1.90;99.90
7232;DHT22;3657;49.630;11.018;2023-02-13T09:22:50;1.90;99.90
7232;DHT22;3657;49.630;11.018;2023-02-13T09:25:17;2.00;99.90
7232;DHT22;3657;49.630;11.018;2023-02-13T09:27:44;2.00;99.90
7232;DHT22;3657;49.630;11.018;2023-02-13T09:30:13;2.00;99.90
7232;DHT22;3657;49.630;11.018;2023-02-13T09:32:47;2.00;99.90
7232;DHT22;3657;49.630;11.018;2023-02-13T09:35:15;2.00;99.90
7232;DHT22;3657;49.630;11.018;2023-02-13T09:37:41;2.00;99.90
7232;DHT22;3657;49.630;11.018;2023-02-13T09:40:17;2.00;99.90
7232;DHT22;3657;49.630;11.018;2023-02-13T09:42:44;2.10;99.90
7232;DHT22;3657;49.630;11.018;2023-02-13T09:45:14;2.10;99.90
7232;DHT22;3657;49.630;11.018;2023-02-13T09:47:43;2.10;99.90
7232;DHT22;3657;49.630;11.018;2023-02-13T09:50:12;2.10;99.90
7232;DHT22;3657;49.630;11.018;2023-02-13T09:52:42;2.10;99.90
7232;DHT22;3657;49.630;11.018;2023-02-13T09:55:14;2.20;99.90
7232;DHT22;3657;49.630;11.018;2023-02-13T09:57:45;2.20;99.90
7232;DHT22;3657;49.630;11.018;2023-02-13T10:00:18;2.20;99.90
7232;DHT22;3657;49.630;11.018;2023-02-13T10:03:10;2.20;99.90
7232;DHT22;3657;49.630;11.018;2023-02-13T10:05:46;2.20;99.90
7232;DHT22;3657;49.630;11.018;2023-02-13T10:08:30;2.30;99.90
7232;DHT22;3657;49.630;11.018;2023-02-13T10:11:07;2.30;99.90
7232;DHT22;3657;49.630;11.018;2023-02-13T10:13:48;2.30;99.90
7232;DHT22;3657;49.630;11.018;2023-02-13T10:16:20;2.30;99.90
7232;DHT22;3657;49.630;11.018;2023-02-13T10:18:50;2.40;99.90
7232;DHT22;3657;49.630;11.018;2023-02-13T10:21:21;2.40;99.90
7232;DHT22;3657;49.630;11.018;2023-02-13T10:23:53;2.40;99.90
7232;DHT22;3657;49.630;11.018;2023-02-13T10:26:23;2.40;99.90
7232;DHT22;3657;49.630;11.018;2023-02-13T10:29:12;2.50;99.90
7232;DHT22;3657;49.630;11.018;2023-02-13T10:32:01;2.50;99.90
7232;DHT22;3657;49.630;11.018;2023-02-13T10:34:34;2.50;99.90
7232;DHT22;3657;49.630;11.018;2023-02-13T10:37:03;2.50;99.90
7232;DHT22;3657;49.630;11.018;2023-02-13T10:39:34;2.60;99.90
7232;DHT22;3657;49.630;11.018;2023-02-13T10:42:10;2.60;99.90
7232;DHT22;3657;49.630;11.018;2023-02-13T10:44:47;2.60;99.90
7232;DHT22;3657;49.630;11.018;2023-02-13T10:47:26;2.60;99.90
7232;DHT22;3657;49.630;11.018;2023-02-13T10:50:09;2.70;99.90
7232;DHT22;3657;49.630;11.018;2023-02-13T10:52:46;2.70;99.90
7232;DHT22;3657;49.630;11.018;2023-02-13T10:58:14;2.80;99.90
7232;DHT22;3657;49.630;11.018;2023-02-13T11:00:46;2.90;99.90
7232;DHT22;3657;49.630;11.018;2023-02-13T11:03:18;2.90;99.90
7232;DHT22;3657;49.630;11.018;2023-02-13T11:05:46;3.00;99.90
7232;DHT22;3657;49.630;11.018;2023-02-13T11:08:17;3.10;99.90
7232;DHT22;3657;49.630;11.018;2023-02-13T11:10:45;3.20;99.90
7232;DHT22;3657;49.630;11.018;2023-02-13T11:13:17;3.20;99.90
7232;DHT22;3657;49.630;11.018;2023-02-13T11:15:59;3.20;99.90
7232;DHT22;3657;49.630;11.018;2023-02-13T11:18:30;3.30;99.90
7232;DHT22;3657;49.630;11.018;2023-02-13T11:21:00;3.30;99.90
7232;DHT22;3657;49.630;11.018;2023-02-13T11:23:37;3.40;99.90
7232;DHT22;3657;49.630;11.018;2023-02-13T11:26:06;3.50;99.90
7232;DHT22;3657;49.630;11.018;2023-02-13T11:28:36;3.50;99.90
7232;DHT22;3657;49.630;11.018;2023-02-13T11:31:12;3.50;99.90
7232;DHT22;3657;49.630;11.018;2023-02-13T11:33:41;3.60;99.90
7232;DHT22;3657;49.630;11.018;2023-02-13T11:36:09;3.60;99.90
7232;DHT22;3657;49.630;11.018;2023-02-13T11:38:39;3.60;99.90
7232;DHT22;3657;49.630;11.018;2023-02-13T11:41:08;3.60;99.90
7232;DHT22;3657;49.630;11.018;2023-02-13T11:43:42;3.60;99.90
7232;DHT22;3657;49.630;11.018;2023-02-13T11:46:15;3.70;99.90
7232;DHT22;3657;49.630;11.018;2023-02-13T11:48:56;3.80;99.90
7232;DHT22;3657;49.630;11.018;2023-02-13T11:51:41;3.80;99.90
7232;DHT22;3657;49.630;11.018;2023-02-13T11:54:23;3.90;99.90
7232;DHT22;3657;49.630;11.018;2023-02-13T11:56:53;3.90;99.90
7232;DHT22;3657;49.630;11.018;2023-02-13T11:59:22;4.00;99.90
7232;DHT22;3657;49.630;11.018;2023-02-13T12:02:01;4.00;99.90
7232;DHT22;3657;49.630;11.018;2023-02-13T12:04:29;4.10;99.90
7232;DHT22;3657;49.630;11.018;2023-02-13T12:07:00;4.10;99.90
7232;DHT22;3657;49.630;11.018;2023-02-13T12:09:27;4.20;99.90
7232;DHT22;3657;49.630;11.018;2023-02-13T12:11:56;4.30;99.90
7232;DHT22;3657;49.630;11.018;2023-02-13T12:14:27;4.40;99.90
7232;DHT22;3657;49.630;11.018;2023-02-13T12:16:59;4.40;99.90
7232;DHT22;3657;49.630;11.018;2023-02-13T12:19:32;4.50;99.90
7232;DHT22;3657;49.630;11.018;2023-02-13T12:24:58;4.70;99.90
7232;DHT22;3657;49.630;11.018;2023-02-13T12:27:37;4.80;99.90
7232;DHT22;3657;49.630;11.018;2023-02-13T12:30:31;5.00;99.90
7232;DHT22;3657;49.630;11.018;2023-02-13T12:33:08;5.00;99.90
7232;DHT22;3657;49.630;11.018;2023-02-13T12:35:45;5.10;99.90
7232;DHT22;3657;49.630;11.018;2023-02-13T12:38:27;5.20;99.90
7232;DHT22;3657;49.630;11.018;2023-02-13T12:41:12;5.20;99.90
7232;DHT22;3657;49.630;11.018;2023-02-13T12:44:03;5.30;99.90
7232;DHT22;3657;49.630;11.018;2023-02-13T12:46:37;5.40;99.90
7232;DHT22;3657;49.630;11.018;2023-02-13T12:49:19;5.40;99.90
7232;DHT22;3657;49.630;11.018;2023-02-13T12:51:58;5.40;99.90
7232;DHT22;3657;49.630;11.018;2023-02-13T12:54:38;5.50;99.90
7232;DHT22;3657;49.630;11.018;2023-02-13T12:57:20;5.60;99.90
7232;DHT22;3657;49.630;11.018;2023-02-13T13:00:14;5.60;99.90
7232;DHT22;3657;49.630;11.018;2023-02-13T13:03:14;5.70;99.90
7232;DHT22;3657;49.630;11.018;2023-02-13T13:05:57;5.80;99.90
7232;DHT22;3657;49.630;11.018;2023-02-13T13:08:37;5.70;99.90
7232;DHT22;3657;49.630;11.018;2023-02-13T13:11:22;5.80;99.90
7232;DHT22;3657;49.630;11.018;2023-02-13T13:13:57;5.90;99.90
7232;DHT22;3657;49.630;11.018;2023-02-13T13:16:34;5.90;99.90
7232;DHT22;3657;49.630;11.018;2023-02-13T13:19:09;6.00;99.90
7232;DHT22;3657;49.630;11.018;2023-02-13T13:21:44;6.20;99.90
7232;DHT22;3657;49.630;11.018;2023-02-13T13:24:26;6.40;99.90
7232;DHT22;3657;49.630;11.018;2023-02-13T13:26:57;6.50;99.90
7232;DHT22;3657;49.630;11.018;2023-02-13T13:29:28;6.50;99.90
7232;DHT22;3657;49.630;11.018;2023-02-13T13:32:01;6.60;99.90
7232;DHT22;3657;49.630;11.018;2023-02-13T13:34:32;6.80;99.90
7232;DHT22;3657;49.630;11.018;2023-02-13T13:37:04;7.00;99.90
7232;DHT22;3657;49.630;11.018;2023-02-13T13:39:41;7.20;99.90
7232;DHT22;3657;49.630;11.018;2023-02-13T13:42:13;7.30;99.90
7232;DHT22;3657;49.630;11.018;2023-02-13T13:44:54;7.50;99.90
7232;DHT22;3657;49.630;11.018;2023-02-13T13:47:39;7.70;99.90
7232;DHT22;3657;49.630;11.018;2023-02-13T13:50:17;7.80;99.90
7232;DHT22;3657;49.630;11.018;2023-02-13T13:53:06;8.00;99.90
7232;DHT22;3657;49.630;11.018;2023-02-13T13:56:01;8.20;99.90
7232;DHT22;3657;49.630;11.018;2023-02-13T13:58:37;8.30;99.90
7232;DHT22;3657;49.630;11.018;2023-02-13T14:01:24;8.50;99.90
7232;DHT22;3657;49.630;11.018;2023-02-13T14:03:53;8.50;99.90
7232;DHT22;3657;49.630;11.018;2023-02-13T14:06:21;8.70;99.90
7232;DHT22;3657;49.630;11.018;2023-02-13T14:09:10;8.80;99.90
7232;DHT22;3657;49.630;11.018;2023-02-13T14:11:56;8.90;99.90
7232;DHT22;3657;49.630;11.018;2023-02-13T14:14:51;9.10;99.90
7232;DHT22;3657;49.630;11.018;2023-02-13T14:17:47;9.10;99.90
7232;DHT22;3657;49.630;11.018;2023-02-13T14:20:21;9.10;99.90
7232;DHT22;3657;49.630;11.018;2023-02-13T14:22:48;9.20;99.90
7232;DHT22;3657;49.630;11.018;2023-02-13T14:25:22;9.20;99.90
7232;DHT22;3657;49.630;11.018;2023-02-13T14:27:58;9.30;99.90
7232;DHT22;3657;49.630;11.018;2023-02-13T14:30:27;9.30;99.90
7232;DHT22;3657;49.630;11.018;2023-02-13T14:32:55;9.30;99.90
7232;DHT22;3657;49.630;11.018;2023-02-13T14:35:25;9.40;99.90
7232;DHT22;3657;49.630;11.018;2023-02-13T14:37:53;9.40;99.90
7232;DHT22;3657;49.630;11.018;2023-02-13T14:40:43;9.50;99.90
7232;DHT22;3657;49.630;11.018;2023-02-13T14:43:37;9.60;99.90
7232;DHT22;3657;49.630;11.018;2023-02-13T14:46:21;9.60;99.90
7232;DHT22;3657;49.630;11.018;2023-02-13T14:48:54;9.60;99.90
7232;DHT22;3657;49.630;11.018;2023-02-13T14:51:25;9.70;99.90
7232;DHT22;3657;49.630;11.018;2023-02-13T14:53:57;9.70;99.90
7232;DHT22;3657;49.630;11.018;2023-02-13T14:56:25;9.70;99.90
7232;DHT22;3657;49.630;11.018;2023-02-13T14:59:00;9.70;99.90
7232;DHT22;3657;49.630;11.018;2023-02-13T15:01:31;9.70;99.90
7232;DHT22;3657;49.630;11.018;2023-02-13T15:04:04;9.70;99.90
7232;DHT22;3657;49.630;11.018;2023-02-13T15:06:35;9.70;99.90
7232;DHT22;3657;49.630;11.018;2023-02-13T15:09:11;9.70;99.90
7232;DHT22;3657;49.630;11.018;2023-02-13T15:11:41;9.70;99.90
7232;DHT22;3657;49.630;11.018;2023-02-13T15:14:30;9.70;99.90
7232;DHT22;3657;49.630;11.018;2023-02-13T15:17:02;9.60;99.90
7232;DHT22;3657;49.630;11.018;2023-02-13T15:19:31;9.60;99.90
7232;DHT22;3657;49.630;11.018;2023-02-13T15:22:00;9.60;99.90
7232;DHT22;3657;49.630;11.018;2023-02-13T15:24:31;9.60;99.90
7232;DHT22;3657;49.630;11.018;2023-02-13T15:27:03;9.60;99.90
7232;DHT22;3657;49.630;11.018;2023-02-13T15:29:32;9.60;99.90
7232;DHT22;3657;49.630;11.018;2023-02-13T15:31:58;9.60;99.90
7232;DHT22;3657;49.630;11.018;2023-02-13T15:34:27;9.50;99.90
7232;DHT22;3657;49.630;11.018;2023-02-13T15:36:54;9.40;99.90
7232;DHT22;3657;49.630;11.018;2023-02-13T15:39:25;9.40;99.90
7232;DHT22;3657;49.630;11.018;2023-02-13T15:41:54;9.30;99.90
7232;DHT22;3657;49.630;11.018;2023-02-13T15:44:25;9.30;99.90
7232;DHT22;3657;49.630;11.018;2023-02-13T15:46:56;9.20;99.90
7232;DHT22;3657;49.630;11.018;2023-02-13T15:49:26;9.20;99.90
7232;DHT22;3657;49.630;11.018;2023-02-13T15:52:04;9.20;99.90
7232;DHT22;3657;49.630;11.018;2023-02-13T15:54:33;9.10;99.90
7232;DHT22;3657;49.630;11.018;2023-02-13T15:57:03;9.00;99.90
7232;DHT22;3657;49.630;11.018;2023-02-13T15:59:33;8.90;99.90
7232;DHT22;3657;49.630;11.018;2023-02-13T16:02:03;8.80;99.90
7232;DHT22;3657;49.630;11.018;2023-02-13T16:04:30;8.80;99.90
7232;DHT22;3657;49.630;11.018;2023-02-13T16:06:58;8.70;99.90
7232;DHT22;3657;49.630;11.018;2023-02-13T16:09:30;8.70;99.90
7232;DHT22;3657;49.630;11.018;2023-02-13T16:12:00;8.70;99.90
7232;DHT22;3657;49.630;11.018;2023-02-13T16:14:28;8.60;99.90
7232;DHT22;3657;49.630;11.018;2023-02-13T16:16:58;8.50;99.90
7232;DHT22;3657;49.630;11.018;2023-02-13T16:19:36;8.50;99.90
7232;DHT22;3657;49.630;11.018;2023-02-13T16:22:13;8.40;99.90
7232;DHT22;3657;49.630;11.018;2023-02-13T16:24:45;8.30;99.90
7232;DHT22;3657;49.630;11.018;2023-02-13T16:27:14;8.20;99.90
7232;DHT22;3657;49.630;11.018;2023-02-13T16:29:44;8.20;99.90
7232;DHT22;3657;49.630;11.018;2023-02-13T16:32:18;8.10;99.90
7232;DHT22;3657;49.630;11.018;2023-02-13T16:34:49;8.10;99.90
7232;DHT22;3657;49.630;11.018;2023-02-13T16:37:27;8.10;99.90
7232;DHT22;3657;49.630;11.018;2023-02-13T16:39:54;8.00;99.90
7232;DHT22;3657;49.630;11.018;2023-02-13T16:42:21;8.00;99.90
7232;DHT22;3657;49.630;11.018;2023-02-13T16:44:47;7.90;99.90